createdAt,value
2019-04-22T00:02:22.599Z,55.10
2019-04-22T00:05:04.743Z,55.20
2019-04-22T00:07:50.039Z,55.30
2019-04-22T00:10:24.232Z,55.10
2019-04-22T00:12:53.127Z,55.30
2019-04-22T00:15:16.796Z,55.30
2019-04-22T00:18:03.246Z,55.20
2019-04-22T00:20:22.633Z,55.10
2019-04-22T00:22:51.931Z,55.30
2019-04-22T00:25:32.957Z,55.40
2019-04-22T00:28:05.068Z,55.50
2019-04-22T00:30:40.644Z,55.60
2019-04-22T00:33:04.810Z,55.30
2019-04-22T00:35:35.470Z,54.80
2019-04-22T00:38:12.833Z,54.30
2019-04-22T00:40:39.753Z,54.10
2019-04-22T00:43:15.417Z,53.90
2019-04-22T00:48:17.936Z,53.90
2019-04-22T00:50:46.325Z,54.00
2019-04-22T00:53:16.265Z,54.10
2019-04-22T00:55:59.235Z,54.20
2019-04-22T00:58:26.180Z,54.00
2019-04-22T01:00:58.696Z,54.10
2019-04-22T01:03:40.641Z,54.20
2019-04-22T01:05:55.406Z,54.20
2019-04-22T01:08:35.270Z,54.20
2019-04-22T01:11:06.335Z,54.30
2019-04-22T01:13:30.417Z,54.40
2019-04-22T01:16:04.561Z,54.70
2019-04-22T01:18:27.929Z,55.00
2019-04-22T01:21:17.802Z,55.30
2019-04-22T01:23:35.671Z,55.60
2019-04-22T01:26:00.725Z,55.80
2019-04-22T01:28:27.298Z,56.10
2019-04-22T01:30:53.305Z,56.40
2019-04-22T01:33:25.944Z,56.50
2019-04-22T01:36:07.840Z,56.80
2019-04-22T01:38:49.972Z,56.90
2019-04-22T01:41:16.543Z,57.10
2019-04-22T01:44:05.664Z,57.40
2019-04-22T01:46:16.320Z,57.60
2019-04-22T01:48:47.221Z,58.00
2019-04-22T01:51:22.362Z,58.30
2019-04-22T01:54:01.676Z,58.60
2019-04-22T01:56:22.234Z,59.00
2019-04-22T01:58:44.128Z,59.40
2019-04-22T02:01:30.755Z,59.70
2019-04-22T02:04:07.139Z,60.10
2019-04-22T02:06:42.186Z,60.30
2019-04-22T02:09:17.333Z,60.60
2019-04-22T02:11:46.733Z,60.70
2019-04-22T02:14:11.709Z,60.90
2019-04-22T02:16:50.050Z,61.10
2019-04-22T02:19:20.124Z,61.60
2019-04-22T02:21:43.997Z,61.70
2019-04-22T02:24:21.415Z,62.20
2019-04-22T02:27:06.246Z,63.00
2019-04-22T02:29:34.719Z,63.60
2019-04-22T02:32:13.431Z,64.20
2019-04-22T02:34:40.297Z,64.80
2019-04-22T02:39:43.129Z,66.40
2019-04-22T02:42:10.710Z,66.80
2019-04-22T02:44:42.946Z,67.10
2019-04-22T02:47:15.248Z,67.30
2019-04-22T02:50:02.579Z,67.50
2019-04-22T02:52:20.445Z,67.90
2019-04-22T02:54:47.547Z,68.40
2019-04-22T02:57:29.807Z,68.90
2019-04-22T03:02:43.070Z,69.30
2019-04-22T03:04:52.404Z,69.80
2019-04-22T03:07:18.560Z,70.10
2019-04-22T03:09:54.828Z,70.20
2019-04-22T03:17:31.819Z,71.30
2019-04-22T03:22:31.712Z,71.40
2019-04-22T03:27:29.704Z,71.80
2019-04-22T03:33:05.496Z,72.30
2019-04-22T03:42:55.730Z,73.10
2019-04-22T03:45:28.134Z,73.20
2019-04-22T03:48:17.689Z,73.40
2019-04-22T03:53:38.674Z,73.80
2019-04-22T03:58:23.830Z,74.10
2019-04-22T04:00:55.740Z,74.50
2019-04-22T04:03:11.888Z,74.70
2019-04-22T04:08:19.726Z,74.60
2019-04-22T04:10:48.378Z,74.50
2019-04-22T04:13:20.535Z,74.30
2019-04-22T04:15:38.468Z,74.10
2019-04-22T04:18:21.195Z,73.90
2019-04-22T04:21:10.252Z,73.80
2019-04-22T04:23:30.831Z,73.40
2019-04-22T04:28:47.771Z,73.30
2019-04-22T04:31:11.368Z,72.80
2019-04-22T04:33:36.194Z,72.60
2019-04-22T04:38:32.379Z,72.50
2019-04-22T04:41:06.183Z,72.70
2019-04-22T04:43:42.050Z,72.90
2019-04-22T04:46:07.317Z,73.50
2019-04-22T04:48:47.197Z,73.90
2019-04-22T04:56:11.972Z,74.40
2019-04-22T04:58:56.498Z,74.50
2019-04-22T05:01:10.989Z,74.30
2019-04-22T05:03:49.290Z,74.30
2019-04-22T05:06:12.952Z,74.20
2019-04-22T05:09:10.056Z,74.30
2019-04-22T05:11:13.812Z,74.00
2019-04-22T05:16:24.858Z,73.60
2019-04-22T05:18:44.316Z,73.50
2019-04-22T05:23:43.893Z,73.00
2019-04-22T05:26:22.134Z,72.90
2019-04-22T05:28:48.085Z,72.80
2019-04-22T05:31:30.924Z,72.50
2019-04-22T05:34:04.471Z,72.20
2019-04-22T05:36:37.952Z,72.60
2019-04-22T05:41:36.437Z,71.10
2019-04-22T05:44:12.445Z,70.60
2019-04-22T05:46:34.498Z,70.30
2019-04-22T05:49:15.026Z,70.10
2019-04-22T05:51:41.697Z,69.60
2019-04-22T05:54:14.477Z,69.30
2019-04-22T05:56:39.448Z,68.80
2019-04-22T05:59:11.641Z,68.40
2019-04-22T06:01:55.049Z,67.80
2019-04-22T06:06:42.286Z,66.90
2019-04-22T06:09:20.055Z,66.60
2019-04-22T06:11:36.339Z,66.30
2019-04-22T06:14:14.956Z,65.60
2019-04-22T06:16:53.217Z,65.40
2019-04-22T06:19:18.600Z,65.30
2019-04-22T06:21:50.176Z,65.00
2019-04-22T06:24:23.647Z,64.90
2019-04-22T06:27:04.464Z,64.90
2019-04-22T06:34:30.644Z,63.90
2019-04-22T06:36:59.766Z,63.80
2019-04-22T06:39:35.697Z,64.00
2019-04-22T06:42:00.574Z,64.00
2019-04-22T06:44:33.926Z,63.40
2019-04-22T06:47:38.315Z,63.10
2019-04-22T06:49:35.589Z,62.90
2019-04-22T06:52:09.191Z,62.70
2019-04-22T06:54:34.275Z,62.70
2019-04-22T06:57:06.262Z,62.20
2019-04-22T06:59:36.244Z,61.70
2019-04-22T07:02:11.663Z,60.40
2019-04-22T07:04:42.947Z,59.80
2019-04-22T07:07:12.814Z,58.90
2019-04-22T07:12:11.561Z,59.80
2019-04-22T07:14:47.474Z,59.20
2019-04-22T07:17:15.897Z,59.40
2019-04-22T07:19:43.753Z,59.00
2019-04-22T07:22:18.111Z,59.00
2019-04-22T07:24:59.254Z,58.90
2019-04-22T07:27:29.221Z,58.70
2019-04-22T07:30:08.988Z,58.30
2019-04-22T07:35:08.776Z,57.70
2019-04-22T07:40:02.590Z,57.60
2019-04-22T07:42:36.891Z,57.90
2019-04-22T07:45:10.194Z,57.70
2019-04-22T07:50:13.177Z,57.90
2019-04-22T07:52:38.681Z,57.70
2019-04-22T07:55:08.809Z,57.80
2019-04-22T07:57:44.351Z,58.20
2019-04-22T08:00:16.021Z,57.60
2019-04-22T08:02:50.452Z,57.50
2019-04-22T08:05:22.306Z,57.30
2019-04-22T08:07:52.467Z,56.20
2019-04-22T08:12:51.909Z,55.40
2019-04-22T08:15:30.158Z,55.30
2019-04-22T08:20:30.729Z,54.70
2019-04-22T08:23:02.846Z,54.00
2019-04-22T08:25:24.774Z,54.30
2019-04-22T08:28:01.615Z,54.40
2019-04-22T08:30:33.815Z,53.80
2019-04-22T08:33:04.083Z,53.00
2019-04-22T08:40:43.139Z,53.20
2019-04-22T08:43:14.414Z,53.20
2019-04-22T08:45:46.628Z,53.40
2019-04-22T08:48:09.591Z,53.70
2019-04-22T08:50:38.968Z,53.80
2019-04-22T08:53:17.970Z,53.80
2019-04-22T08:55:52.030Z,53.70
2019-04-22T08:58:20.347Z,53.50
2019-04-22T09:00:49.896Z,53.40
2019-04-22T09:03:17.424Z,53.20
2019-04-22T09:06:01.528Z,53.50
2019-04-22T09:08:18.785Z,54.10
2019-04-22T09:10:51.908Z,53.80
2019-04-22T09:13:20.240Z,53.10
2019-04-22T09:15:48.860Z,52.70
2019-04-22T09:18:24.700Z,52.20
2019-04-22T09:21:01.415Z,51.20
2019-04-22T09:25:53.165Z,50.90
2019-04-22T09:28:31.180Z,50.70
2019-04-22T09:31:01.823Z,51.10
2019-04-22T09:33:27.109Z,50.80
2019-04-22T09:36:12.743Z,50.60
2019-04-22T09:40:59.896Z,50.80
2019-04-22T09:43:40.744Z,50.60
2019-04-22T09:46:17.274Z,50.40
2019-04-22T09:48:40.609Z,50.20
2019-04-22T09:51:05.936Z,50.10
2019-04-22T09:53:47.066Z,50.00
2019-04-22T09:56:09.766Z,50.50
2019-04-22T09:58:44.662Z,50.50
2019-04-22T10:01:32.401Z,50.70
2019-04-22T10:03:54.103Z,50.40
2019-04-22T10:06:23.278Z,49.90
2019-04-22T10:11:25.112Z,50.20
2019-04-22T10:13:53.612Z,49.30
2019-04-22T10:16:27.419Z,49.00
2019-04-22T10:18:52.382Z,48.50
2019-04-22T10:21:27.235Z,48.50
2019-04-22T10:23:54.692Z,48.10
2019-04-22T10:26:28.282Z,48.10
2019-04-22T10:29:00.876Z,47.90
2019-04-22T10:31:32.877Z,47.80
2019-04-22T10:33:49.491Z,48.20
2019-04-22T10:36:03.618Z,48.90
2019-04-22T10:38:34.499Z,48.90
2019-04-22T10:41:04.861Z,48.70
2019-04-22T10:43:34.956Z,48.60
2019-04-22T10:46:06.116Z,48.50
2019-04-22T10:48:36.598Z,48.60
2019-04-22T10:51:06.570Z,49.10
2019-04-22T10:53:37.395Z,49.30
2019-04-22T10:56:07.238Z,49.40
2019-04-22T10:58:38.313Z,49.60
2019-04-22T11:01:09.443Z,49.80
2019-04-22T11:03:39.500Z,50.10
2019-04-22T11:06:09.654Z,51.00
2019-04-22T11:08:46.587Z,51.50
2019-04-22T11:11:21.435Z,51.20
2019-04-22T11:13:42.064Z,51.10
2019-04-22T11:16:13.811Z,51.50
2019-04-22T11:18:43.522Z,51.20
2019-04-22T11:21:13.732Z,51.50
2019-04-22T11:23:44.665Z,51.40
2019-04-22T11:26:15.437Z,51.50
2019-04-22T11:28:47.522Z,51.90
2019-04-22T11:31:18.554Z,52.40
2019-04-22T11:33:48.437Z,52.70
2019-04-22T11:36:18.043Z,53.00
2019-04-22T11:38:53.023Z,52.80
2019-04-22T11:41:19.487Z,53.10
2019-04-22T11:43:51.289Z,53.50
2019-04-22T11:46:21.150Z,53.90
2019-04-22T11:48:51.902Z,53.30
2019-04-22T11:51:22.138Z,53.20
2019-04-22T11:53:52.573Z,52.60
2019-04-22T11:56:22.865Z,52.30
2019-04-22T11:58:52.956Z,52.50
2019-04-22T12:01:22.443Z,52.50
2019-04-22T12:03:51.894Z,52.30
2019-04-22T12:06:33.951Z,52.30
2019-04-22T12:09:03.959Z,52.00
2019-04-22T12:11:34.514Z,51.00
2019-04-22T12:14:04.316Z,50.70
2019-04-22T12:16:34.991Z,50.10
2019-04-22T12:19:05.037Z,50.00
2019-04-22T12:21:35.221Z,49.80
2019-04-22T12:24:05.567Z,49.80
2019-04-22T12:26:35.078Z,49.50
2019-04-22T12:29:06.882Z,49.50
2019-04-22T12:31:37.601Z,49.10
2019-04-22T12:34:07.896Z,48.50
2019-04-22T12:36:38.471Z,48.30
2019-04-22T12:39:09.663Z,48.90
2019-04-22T12:41:40.173Z,49.30
2019-04-22T12:44:09.618Z,49.80
2019-04-22T12:46:39.032Z,49.70
2019-04-22T12:49:09.904Z,48.80
2019-04-22T12:51:40.874Z,48.10
2019-04-22T12:54:10.998Z,48.20
2019-04-22T12:56:41.779Z,48.10
2019-04-22T12:59:11.749Z,47.50
2019-04-22T13:01:42.615Z,47.40
2019-04-22T13:04:15.629Z,46.90
2019-04-22T13:06:44.037Z,46.80
2019-04-22T13:09:14.831Z,46.70
2019-04-22T13:11:45.870Z,46.50
2019-04-22T13:14:16.706Z,47.20
2019-04-22T13:16:47.247Z,46.90
2019-04-22T13:19:18.892Z,46.90
2019-04-22T13:21:48.946Z,46.60
2019-04-22T13:24:20.103Z,45.90
2019-04-22T13:26:50.570Z,45.80
2019-04-22T13:29:21.298Z,45.40
2019-04-22T13:31:50.926Z,45.40
2019-04-22T13:34:29.533Z,45.10
2019-04-22T13:36:52.856Z,44.80
2019-04-22T13:39:22.827Z,44.30
2019-04-22T13:41:59.302Z,43.30
2019-04-22T13:44:24.970Z,42.80
2019-04-22T13:47:11.537Z,42.50
2019-04-22T13:49:59.047Z,42.20
2019-04-22T13:52:35.646Z,42.10
2019-04-22T13:55:08.160Z,42.50
2019-04-22T13:57:19.773Z,42.00
2019-04-22T13:59:38.103Z,41.50
2019-04-22T14:02:22.245Z,41.30
2019-04-22T14:04:54.763Z,40.60
2019-04-22T14:07:25.138Z,41.10
2019-04-22T14:09:55.988Z,40.70
2019-04-22T14:12:26.661Z,40.70
2019-04-22T14:14:56.418Z,40.20
2019-04-22T14:17:27.103Z,40.30
2019-04-22T14:19:56.906Z,39.80
2019-04-22T14:22:26.447Z,39.60
2019-04-22T14:24:58.644Z,39.60
2019-04-22T14:27:40.720Z,39.40
2019-04-22T14:29:59.926Z,39.30
2019-04-22T14:32:31.732Z,39.20
2019-04-22T14:35:00.733Z,39.10
2019-04-22T14:37:32.038Z,39.20
2019-04-22T14:40:06.416Z,39.20
2019-04-22T14:42:52.106Z,39.10
2019-04-22T14:45:53.428Z,38.60
2019-04-22T14:47:59.658Z,38.70
2019-04-22T14:50:32.235Z,38.80
2019-04-22T14:52:58.225Z,38.70
2019-04-22T14:55:15.583Z,38.20
2019-04-22T14:57:42.307Z,37.90
2019-04-22T15:00:15.877Z,37.50
2019-04-22T15:02:46.039Z,37.70
2019-04-22T15:05:16.386Z,37.50
2019-04-22T15:07:45.280Z,36.90
2019-04-22T15:10:15.677Z,36.60
2019-04-22T15:12:49.738Z,36.70
2019-04-22T15:15:23.673Z,36.70
2019-04-22T15:17:58.869Z,37.00
2019-04-22T15:20:30.105Z,37.40
2019-04-22T15:22:59.558Z,37.80
2019-04-22T15:25:30.470Z,37.60
2019-04-22T15:28:01.511Z,37.80
2019-04-22T15:30:31.148Z,37.40
2019-04-22T15:33:01.227Z,37.50
2019-04-22T15:35:31.369Z,37.70
2019-04-22T15:38:01.513Z,37.60
2019-04-22T15:40:31.581Z,37.60
2019-04-22T15:43:02.563Z,37.70
2019-04-22T15:45:32.637Z,38.30
2019-04-22T15:48:02.251Z,37.80
2019-04-22T15:50:32.801Z,37.60
2019-04-22T15:53:04.187Z,37.80
2019-04-22T15:55:34.543Z,38.10
2019-04-22T15:58:05.754Z,38.20
2019-04-22T16:00:48.721Z,38.60
2019-04-22T16:03:10.067Z,38.60
2019-04-22T16:05:37.644Z,38.90
2019-04-22T16:08:08.639Z,38.80
2019-04-22T16:10:38.088Z,38.80
2019-04-22T16:13:15.151Z,39.00
2019-04-22T16:15:38.616Z,39.20
2019-04-22T16:18:10.577Z,39.30
2019-04-22T16:20:40.414Z,39.50
2019-04-22T16:23:15.597Z,39.60
2019-04-22T16:25:51.293Z,39.40
2019-04-22T16:28:21.619Z,39.50
2019-04-22T16:30:51.310Z,39.70
2019-04-22T16:33:21.652Z,40.10
2019-04-22T16:35:50.918Z,40.70
2019-04-22T16:38:20.369Z,41.20
2019-04-22T16:40:50.523Z,41.40
2019-04-22T16:43:22.405Z,41.50
2019-04-22T16:45:52.033Z,41.50
2019-04-22T16:48:21.953Z,41.60
2019-04-22T16:50:52.738Z,41.50
2019-04-22T16:53:23.223Z,41.60
2019-04-22T16:55:52.979Z,41.70
2019-04-22T16:58:23.116Z,41.70
2019-04-22T17:00:54.523Z,41.80
2019-04-22T17:03:26.821Z,42.10
2019-04-22T17:06:09.717Z,42.10
2019-04-22T17:08:39.475Z,42.30
2019-04-22T17:11:09.747Z,42.50
2019-04-22T17:13:40.030Z,42.70
2019-04-22T17:16:09.974Z,42.70
2019-04-22T17:18:39.612Z,42.70
2019-04-22T17:21:10.616Z,42.80
2019-04-22T17:23:41.294Z,43.00
2019-04-22T17:26:12.546Z,42.80
2019-04-22T17:28:43.726Z,42.80
2019-04-22T17:31:13.319Z,42.50
2019-04-22T17:33:42.851Z,42.40
2019-04-22T17:36:12.307Z,42.20
2019-04-22T17:38:52.651Z,42.30
2019-04-22T17:41:24.423Z,42.20
2019-04-22T17:44:25.798Z,42.20
2019-04-22T17:46:35.920Z,42.20
2019-04-22T17:49:15.411Z,42.20
2019-04-22T17:52:04.701Z,42.20
2019-04-22T17:54:38.539Z,42.20
2019-04-22T17:57:07.809Z,42.20
2019-04-22T17:59:38.749Z,42.40
2019-04-22T18:02:07.043Z,42.40
2019-04-22T18:04:23.367Z,42.60
2019-04-22T18:07:19.129Z,42.70
2019-04-22T18:10:24.215Z,42.70
2019-04-22T18:12:25.775Z,42.80
2019-04-22T18:14:52.854Z,43.00
2019-04-22T18:17:25.553Z,43.10
2019-04-22T18:19:47.707Z,43.30
2019-04-22T18:22:12.354Z,44.10
2019-04-22T18:24:47.017Z,43.70
2019-04-22T18:27:34.714Z,43.80
2019-04-22T18:29:51.541Z,44.00
2019-04-22T18:32:15.137Z,44.20
2019-04-22T18:34:49.533Z,44.40
2019-04-22T18:37:20.956Z,44.50
2019-04-22T18:39:58.014Z,44.40
2019-04-22T18:42:23.947Z,44.70
2019-04-22T18:45:21.648Z,44.70
2019-04-22T18:47:26.730Z,45.00
2019-04-22T18:49:54.986Z,44.90
2019-04-22T18:52:47.959Z,45.00
2019-04-22T18:55:22.182Z,44.90
2019-04-22T18:58:04.299Z,45.20
2019-04-22T19:00:31.690Z,45.30
2019-04-22T19:03:09.263Z,45.50
2019-04-22T19:05:53.824Z,45.50
2019-04-22T19:08:28.890Z,45.60
2019-04-22T19:11:07.385Z,45.80
2019-04-22T19:16:19.697Z,45.90
2019-04-22T19:21:08.104Z,46.10
2019-04-22T19:23:38.459Z,46.20
2019-04-22T19:26:16.233Z,46.30
2019-04-22T19:28:42.572Z,46.30
2019-04-22T19:31:13.797Z,46.50
2019-04-22T19:33:40.525Z,46.70
2019-04-22T19:36:20.643Z,46.70
2019-04-22T19:38:49.793Z,46.80
2019-04-22T19:41:23.991Z,47.00
2019-04-22T19:44:00.500Z,47.00
2019-04-22T19:46:42.401Z,47.00
2019-04-22T19:49:18.148Z,47.10
2019-04-22T19:54:13.514Z,47.30
2019-04-22T19:56:38.859Z,47.40
2019-04-22T19:59:12.090Z,47.50
2019-04-22T20:02:09.630Z,47.70
2019-04-22T20:05:10.785Z,47.70
2019-04-22T20:07:41.863Z,47.70
2019-04-22T20:10:20.584Z,47.90
2019-04-22T20:12:53.136Z,47.80
2019-04-22T20:15:25.884Z,47.90
2019-04-22T20:18:22.090Z,47.90
2019-04-22T20:20:31.492Z,48.20
2019-04-22T20:23:01.066Z,47.90
2019-04-22T20:25:21.318Z,48.00
2019-04-22T20:28:06.187Z,48.20
2019-04-22T20:30:34.636Z,48.70
2019-04-22T20:32:59.344Z,48.10
2019-04-22T20:35:41.993Z,48.10
2019-04-22T20:38:08.790Z,48.00
2019-04-22T20:40:39.904Z,48.00
2019-04-22T20:43:17.946Z,47.80
2019-04-22T20:45:41.589Z,47.80
2019-04-22T20:48:05.012Z,47.60
2019-04-22T20:50:41.700Z,47.60
2019-04-22T20:53:20.006Z,47.40
2019-04-22T20:55:41.915Z,47.40
2019-04-22T20:58:15.371Z,47.20
2019-04-22T21:00:40.301Z,47.20
2019-04-22T21:03:07.303Z,47.00
2019-04-22T21:05:40.118Z,47.00
2019-04-22T21:08:45.163Z,46.90
2019-04-22T21:11:12.670Z,46.80
2019-04-22T21:13:41.021Z,46.50
2019-04-22T21:16:22.025Z,46.30
2019-04-22T21:18:44.183Z,46.20
2019-04-22T21:21:20.385Z,46.10
2019-04-22T21:23:45.851Z,45.80
2019-04-22T21:26:27.469Z,45.70
2019-04-22T21:28:53.569Z,45.70
2019-04-22T21:31:29.337Z,45.50
2019-04-22T21:34:02.139Z,45.50
2019-04-22T21:36:35.325Z,45.40
2019-04-22T21:39:00.505Z,45.30
2019-04-22T21:41:24.947Z,45.10
2019-04-22T21:43:58.026Z,45.00
2019-04-22T21:46:35.652Z,44.90
2019-04-22T21:49:08.035Z,44.90
2019-04-22T21:51:39.746Z,44.90
2019-04-22T21:54:09.607Z,45.00
2019-04-22T21:59:12.460Z,45.10
2019-04-22T22:04:18.809Z,45.20
2019-04-22T22:06:38.007Z,45.30
2019-04-22T22:09:22.602Z,45.40
2019-04-22T22:11:44.539Z,45.40
2019-04-22T22:14:16.940Z,45.40
2019-04-22T22:17:02.035Z,45.50
2019-04-22T22:19:38.027Z,45.40
2019-04-22T22:22:28.091Z,45.40
2019-04-22T22:24:45.253Z,45.40
2019-04-22T22:27:14.394Z,45.30
2019-04-22T22:32:22.036Z,45.20
2019-04-22T22:34:55.114Z,45.20
2019-04-22T22:37:12.256Z,45.10
2019-04-22T22:39:39.258Z,45.10
2019-04-22T22:42:01.821Z,45.10
2019-04-22T22:44:38.190Z,45.00
2019-04-22T22:47:18.103Z,45.70
2019-04-22T22:50:00.720Z,45.10
2019-04-22T22:54:57.580Z,45.20
2019-04-22T22:57:33.113Z,45.20
2019-04-22T23:00:01.568Z,45.20
2019-04-22T23:02:36.693Z,45.30
2019-04-22T23:05:04.038Z,45.30
2019-04-22T23:07:37.414Z,45.30
2019-04-22T23:10:06.108Z,45.20
2019-04-22T23:12:53.872Z,45.30
2019-04-22T23:15:04.774Z,45.20
2019-04-22T23:17:25.587Z,45.20
2019-04-22T23:19:54.111Z,45.30
2019-04-22T23:22:35.432Z,45.30
2019-04-22T23:25:19.152Z,45.40
2019-04-22T23:27:44.382Z,45.50
2019-04-22T23:30:26.790Z,45.50
2019-04-22T23:33:07.513Z,45.60
2019-04-22T23:35:44.360Z,45.60
2019-04-22T23:38:10.790Z,45.70
2019-04-22T23:40:54.147Z,45.80
2019-04-22T23:43:34.149Z,45.90
2019-04-22T23:46:01.677Z,45.90
2019-04-22T23:48:20.517Z,46.00
2019-04-22T23:50:55.752Z,45.90
2019-04-22T23:56:15.251Z,46.00
2019-04-22T23:58:49.245Z,46.00
